sensor_id;sensor_type;location;lat;lon;timestamp;P1;durP1;ratioP1;P2;durP2;ratioP2
79204;SDS011;68632;47.512;19.104;2024-03-02T00:00:48;36.80;;;24.48;;
79204;SDS011;68632;47.512;19.104;2024-03-02T00:01:51;42.42;;;24.40;;
79204;SDS011;68632;47.512;19.104;2024-03-02T00:02:53;38.50;;;23.80;;
79204;SDS011;68632;47.512;19.104;2024-03-02T00:03:55;37.72;;;24.88;;
79204;SDS011;68632;47.512;19.104;2024-03-02T00:04:58;39.67;;;24.77;;
79204;SDS011;68632;47.512;19.104;2024-03-02T00:06:00;37.78;;;24.35;;
79204;SDS011;68632;47.512;19.104;2024-03-02T00:07:02;37.67;;;24.17;;
79204;SDS011;68632;47.512;19.104;2024-03-02T00:08:05;37.05;;;23.05;;
79204;SDS011;68632;47.512;19.104;2024-03-02T00:09:09;40.75;;;25.02;;
79204;SDS011;68632;47.512;19.104;2024-03-02T00:10:12;39.55;;;24.70;;
79204;SDS011;68632;47.512;19.104;2024-03-02T00:11:18;39.85;;;25.05;;
79204;SDS011;68632;47.512;19.104;2024-03-02T00:12:20;36.80;;;25.05;;
79204;SDS011;68632;47.512;19.104;2024-03-02T00:13:23;40.50;;;24.35;;
79204;SDS011;68632;47.512;19.104;2024-03-02T00:14:28;41.03;;;24.58;;
79204;SDS011;68632;47.512;19.104;2024-03-02T00:16:50;41.30;;;24.05;;
79204;SDS011;68632;47.512;19.104;2024-03-02T00:17:53;41.17;;;26.45;;
79204;SDS011;68632;47.512;19.104;2024-03-02T00:18:56;39.63;;;24.02;;
79204;SDS011;68632;47.512;19.104;2024-03-02T00:19:58;42.38;;;24.90;;
79204;SDS011;68632;47.512;19.104;2024-03-02T00:21:01;40.00;;;23.67;;
79204;SDS011;68632;47.512;19.104;2024-03-02T00:22:04;42.95;;;23.77;;
79204;SDS011;68632;47.512;19.104;2024-03-02T00:23:07;42.10;;;25.45;;
79204;SDS011;68632;47.512;19.104;2024-03-02T00:24:30;39.80;;;23.33;;
79204;SDS011;68632;47.512;19.104;2024-03-02T00:25:44;36.85;;;22.77;;
79204;SDS011;68632;47.512;19.104;2024-03-02T00:26:50;39.63;;;22.98;;
79204;SDS011;68632;47.512;19.104;2024-03-02T00:27:53;41.70;;;24.75;;
79204;SDS011;68632;47.512;19.104;2024-03-02T00:28:55;43.80;;;25.65;;
79204;SDS011;68632;47.512;19.104;2024-03-02T00:30:00;41.00;;;26.77;;
79204;SDS011;68632;47.512;19.104;2024-03-02T00:32:17;38.78;;;23.65;;
79204;SDS011;68632;47.512;19.104;2024-03-02T00:33:19;40.08;;;22.98;;
79204;SDS011;68632;47.512;19.104;2024-03-02T00:34:23;37.53;;;23.52;;
79204;SDS011;68632;47.512;19.104;2024-03-02T00:35:25;37.10;;;23.83;;
79204;SDS011;68632;47.512;19.104;2024-03-02T00:36:28;39.17;;;24.85;;
79204;SDS011;68632;47.512;19.104;2024-03-02T00:37:30;41.70;;;24.25;;
79204;SDS011;68632;47.512;19.104;2024-03-02T00:38:33;39.45;;;24.77;;
79204;SDS011;68632;47.512;19.104;2024-03-02T00:39:36;42.03;;;25.30;;
79204;SDS011;68632;47.512;19.104;2024-03-02T00:40:38;39.78;;;25.38;;
79204;SDS011;68632;47.512;19.104;2024-03-02T00:41:41;38.30;;;24.73;;
79204;SDS011;68632;47.512;19.104;2024-03-02T00:42:46;39.88;;;24.92;;
79204;SDS011;68632;47.512;19.104;2024-03-02T00:43:55;38.97;;;25.05;;
79204;SDS011;68632;47.512;19.104;2024-03-02T00:45:08;35.22;;;22.10;;
79204;SDS011;68632;47.512;19.104;2024-03-02T00:46:20;42.22;;;24.70;;
79204;SDS011;68632;47.512;19.104;2024-03-02T00:47:22;39.05;;;24.33;;
79204;SDS011;68632;47.512;19.104;2024-03-02T00:48:24;41.25;;;26.13;;
79204;SDS011;68632;47.512;19.104;2024-03-02T00:49:27;41.28;;;25.35;;
79204;SDS011;68632;47.512;19.104;2024-03-02T00:50:30;41.50;;;24.58;;
79204;SDS011;68632;47.512;19.104;2024-03-02T00:51:34;38.08;;;24.67;;
79204;SDS011;68632;47.512;19.104;2024-03-02T00:52:37;41.40;;;25.25;;
79204;SDS011;68632;47.512;19.104;2024-03-02T00:53:40;39.15;;;24.80;;
79204;SDS011;68632;47.512;19.104;2024-03-02T00:54:42;39.80;;;26.23;;
79204;SDS011;68632;47.512;19.104;2024-03-02T00:55:46;39.65;;;23.67;;
79204;SDS011;68632;47.512;19.104;2024-03-02T00:56:50;41.47;;;24.92;;
79204;SDS011;68632;47.512;19.104;2024-03-02T00:57:53;42.97;;;24.70;;
79204;SDS011;68632;47.512;19.104;2024-03-02T00:58:55;40.67;;;24.95;;
79204;SDS011;68632;47.512;19.104;2024-03-02T00:59:58;39.75;;;26.05;;
79204;SDS011;68632;47.512;19.104;2024-03-02T01:01:00;40.47;;;25.73;;
79204;SDS011;68632;47.512;19.104;2024-03-02T01:02:03;39.42;;;25.08;;
79204;SDS011;68632;47.512;19.104;2024-03-02T01:03:06;37.85;;;24.05;;
79204;SDS011;68632;47.512;19.104;2024-03-02T01:04:09;38.20;;;24.13;;
79204;SDS011;68632;47.512;19.104;2024-03-02T01:05:13;42.53;;;24.77;;
79204;SDS011;68632;47.512;19.104;2024-03-02T01:06:15;41.22;;;25.20;;
79204;SDS011;68632;47.512;19.104;2024-03-02T01:07:18;43.03;;;24.17;;
79204;SDS011;68632;47.512;19.104;2024-03-02T01:08:20;39.78;;;22.90;;
79204;SDS011;68632;47.512;19.104;2024-03-02T01:09:22;40.40;;;25.00;;
79204;SDS011;68632;47.512;19.104;2024-03-02T01:10:25;42.50;;;26.65;;
79204;SDS011;68632;47.512;19.104;2024-03-02T01:11:30;39.97;;;22.75;;
79204;SDS011;68632;47.512;19.104;2024-03-02T01:13:53;36.28;;;22.52;;
79204;SDS011;68632;47.512;19.104;2024-03-02T01:14:55;36.67;;;23.70;;
79204;SDS011;68632;47.512;19.104;2024-03-02T01:15:58;41.75;;;24.08;;
79204;SDS011;68632;47.512;19.104;2024-03-02T01:17:00;40.50;;;24.00;;
79204;SDS011;68632;47.512;19.104;2024-03-02T01:18:06;41.60;;;24.77;;
79204;SDS011;68632;47.512;19.104;2024-03-02T01:19:08;42.10;;;24.70;;
79204;SDS011;68632;47.512;19.104;2024-03-02T01:20:11;37.35;;;22.63;;
79204;SDS011;68632;47.512;19.104;2024-03-02T01:21:14;42.58;;;23.52;;
79204;SDS011;68632;47.512;19.104;2024-03-02T01:22:16;37.20;;;23.90;;
79204;SDS011;68632;47.512;19.104;2024-03-02T01:23:22;40.40;;;24.45;;
79204;SDS011;68632;47.512;19.104;2024-03-02T01:24:25;39.50;;;24.15;;
79204;SDS011;68632;47.512;19.104;2024-03-02T01:25:27;38.15;;;23.02;;
79204;SDS011;68632;47.512;19.104;2024-03-02T01:26:30;43.30;;;25.02;;
79204;SDS011;68632;47.512;19.104;2024-03-02T01:27:32;39.85;;;24.05;;
79204;SDS011;68632;47.512;19.104;2024-03-02T01:28:35;39.90;;;24.27;;
79204;SDS011;68632;47.512;19.104;2024-03-02T01:29:37;40.17;;;25.08;;
79204;SDS011;68632;47.512;19.104;2024-03-02T01:30:39;41.15;;;23.95;;
79204;SDS011;68632;47.512;19.104;2024-03-02T01:31:41;35.83;;;22.92;;
79204;SDS011;68632;47.512;19.104;2024-03-02T01:32:44;41.75;;;23.38;;
79204;SDS011;68632;47.512;19.104;2024-03-02T01:33:46;39.67;;;23.40;;
79204;SDS011;68632;47.512;19.104;2024-03-02T01:34:48;39.33;;;24.25;;
79204;SDS011;68632;47.512;19.104;2024-03-02T01:35:51;44.38;;;24.85;;
79204;SDS011;68632;47.512;19.104;2024-03-02T01:36:53;37.88;;;24.58;;
79204;SDS011;68632;47.512;19.104;2024-03-02T01:37:55;41.25;;;24.60;;
79204;SDS011;68632;47.512;19.104;2024-03-02T01:38:57;36.95;;;23.83;;
79204;SDS011;68632;47.512;19.104;2024-03-02T01:40:00;41.08;;;23.58;;
79204;SDS011;68632;47.512;19.104;2024-03-02T01:41:02;37.83;;;23.33;;
79204;SDS011;68632;47.512;19.104;2024-03-02T01:42:04;39.60;;;24.48;;
79204;SDS011;68632;47.512;19.104;2024-03-02T01:43:07;41.30;;;25.50;;
79204;SDS011;68632;47.512;19.104;2024-03-02T01:44:09;39.97;;;22.75;;
79204;SDS011;68632;47.512;19.104;2024-03-02T01:45:11;39.95;;;24.23;;
79204;SDS011;68632;47.512;19.104;2024-03-02T01:46:14;39.20;;;24.42;;
79204;SDS011;68632;47.512;19.104;2024-03-02T01:47:16;41.92;;;23.50;;
79204;SDS011;68632;47.512;19.104;2024-03-02T01:48:18;41.78;;;24.58;;
79204;SDS011;68632;47.512;19.104;2024-03-02T01:49:21;41.72;;;23.65;;
79204;SDS011;68632;47.512;19.104;2024-03-02T01:50:27;38.85;;;24.10;;
79204;SDS011;68632;47.512;19.104;2024-03-02T01:51:30;39.47;;;25.40;;
79204;SDS011;68632;47.512;19.104;2024-03-02T01:52:33;38.58;;;23.63;;
79204;SDS011;68632;47.512;19.104;2024-03-02T01:53:35;41.42;;;24.35;;
79204;SDS011;68632;47.512;19.104;2024-03-02T01:54:37;41.33;;;25.17;;
79204;SDS011;68632;47.512;19.104;2024-03-02T01:55:39;40.85;;;24.30;;
79204;SDS011;68632;47.512;19.104;2024-03-02T01:56:42;40.25;;;23.70;;
79204;SDS011;68632;47.512;19.104;2024-03-02T01:57:44;40.22;;;24.52;;
79204;SDS011;68632;47.512;19.104;2024-03-02T01:58:46;37.55;;;24.65;;
79204;SDS011;68632;47.512;19.104;2024-03-02T01:59:49;38.70;;;23.73;;
79204;SDS011;68632;47.512;19.104;2024-03-02T02:00:52;40.97;;;23.45;;
79204;SDS011;68632;47.512;19.104;2024-03-02T02:01:54;36.28;;;23.67;;
79204;SDS011;68632;47.512;19.104;2024-03-02T02:02:57;38.80;;;23.45;;
79204;SDS011;68632;47.512;19.104;2024-03-02T02:03:59;38.60;;;24.27;;
79204;SDS011;68632;47.512;19.104;2024-03-02T02:05:02;41.90;;;22.65;;
79204;SDS011;68632;47.512;19.104;2024-03-02T02:06:05;38.95;;;24.30;;
79204;SDS011;68632;47.512;19.104;2024-03-02T02:07:07;39.75;;;23.20;;
79204;SDS011;68632;47.512;19.104;2024-03-02T02:08:10;41.22;;;25.33;;
79204;SDS011;68632;47.512;19.104;2024-03-02T02:09:12;40.22;;;22.55;;
79204;SDS011;68632;47.512;19.104;2024-03-02T02:10:14;38.63;;;22.45;;
79204;SDS011;68632;47.512;19.104;2024-03-02T02:11:17;37.90;;;22.38;;
79204;SDS011;68632;47.512;19.104;2024-03-02T02:12:19;40.78;;;23.40;;
79204;SDS011;68632;47.512;19.104;2024-03-02T02:13:22;36.83;;;23.27;;
79204;SDS011;68632;47.512;19.104;2024-03-02T02:14:24;42.25;;;23.85;;
79204;SDS011;68632;47.512;19.104;2024-03-02T02:15:27;40.97;;;24.17;;
79204;SDS011;68632;47.512;19.104;2024-03-02T02:16:30;38.90;;;22.88;;
79204;SDS011;68632;47.512;19.104;2024-03-02T02:17:32;42.78;;;23.88;;
79204;SDS011;68632;47.512;19.104;2024-03-02T02:18:35;42.72;;;23.55;;
79204;SDS011;68632;47.512;19.104;2024-03-02T02:19:40;37.28;;;22.45;;
79204;SDS011;68632;47.512;19.104;2024-03-02T02:20:43;40.78;;;22.52;;
79204;SDS011;68632;47.512;19.104;2024-03-02T02:21:45;37.28;;;22.33;;
79204;SDS011;68632;47.512;19.104;2024-03-02T02:23:55;38.13;;;22.88;;
79204;SDS011;68632;47.512;19.104;2024-03-02T02:24:58;36.50;;;21.88;;
79204;SDS011;68632;47.512;19.104;2024-03-02T02:26:00;36.08;;;22.40;;
79204;SDS011;68632;47.512;19.104;2024-03-02T02:27:03;36.75;;;21.85;;
79204;SDS011;68632;47.512;19.104;2024-03-02T02:28:05;39.50;;;23.52;;
79204;SDS011;68632;47.512;19.104;2024-03-02T02:29:08;39.53;;;22.05;;
79204;SDS011;68632;47.512;19.104;2024-03-02T02:30:10;37.25;;;23.08;;
79204;SDS011;68632;47.512;19.104;2024-03-02T02:31:13;40.90;;;23.58;;
79204;SDS011;68632;47.512;19.104;2024-03-02T02:32:15;38.53;;;23.20;;
79204;SDS011;68632;47.512;19.104;2024-03-02T02:33:19;39.10;;;24.42;;
79204;SDS011;68632;47.512;19.104;2024-03-02T02:34:21;37.90;;;21.42;;
79204;SDS011;68632;47.512;19.104;2024-03-02T02:35:23;38.42;;;21.35;;
79204;SDS011;68632;47.512;19.104;2024-03-02T02:36:26;39.47;;;23.50;;
79204;SDS011;68632;47.512;19.104;2024-03-02T02:37:28;38.97;;;23.58;;
79204;SDS011;68632;47.512;19.104;2024-03-02T02:38:31;37.03;;;22.27;;
79204;SDS011;68632;47.512;19.104;2024-03-02T02:39:34;37.75;;;22.00;;
79204;SDS011;68632;47.512;19.104;2024-03-02T02:40:37;33.53;;;21.17;;
79204;SDS011;68632;47.512;19.104;2024-03-02T02:41:39;32.53;;;21.25;;
79204;SDS011;68632;47.512;19.104;2024-03-02T02:42:41;36.65;;;22.55;;
79204;SDS011;68632;47.512;19.104;2024-03-02T02:43:44;37.10;;;22.38;;
79204;SDS011;68632;47.512;19.104;2024-03-02T02:44:46;37.80;;;22.25;;
79204;SDS011;68632;47.512;19.104;2024-03-02T02:45:48;36.88;;;23.00;;
79204;SDS011;68632;47.512;19.104;2024-03-02T02:46:50;35.85;;;22.20;;
79204;SDS011;68632;47.512;19.104;2024-03-02T02:47:53;36.13;;;21.08;;
79204;SDS011;68632;47.512;19.104;2024-03-02T02:48:55;35.67;;;22.20;;
79204;SDS011;68632;47.512;19.104;2024-03-02T02:49:57;36.55;;;22.65;;
79204;SDS011;68632;47.512;19.104;2024-03-02T02:50:59;38.50;;;21.10;;
79204;SDS011;68632;47.512;19.104;2024-03-02T02:52:02;37.72;;;21.80;;
79204;SDS011;68632;47.512;19.104;2024-03-02T02:53:05;37.25;;;21.52;;
79204;SDS011;68632;47.512;19.104;2024-03-02T02:54:08;34.95;;;22.00;;
79204;SDS011;68632;47.512;19.104;2024-03-02T02:55:10;33.92;;;19.80;;
79204;SDS011;68632;47.512;19.104;2024-03-02T02:56:13;34.25;;;21.17;;
79204;SDS011;68632;47.512;19.104;2024-03-02T02:57:16;37.60;;;21.42;;
79204;SDS011;68632;47.512;19.104;2024-03-02T02:58:18;38.22;;;21.58;;
79204;SDS011;68632;47.512;19.104;2024-03-02T02:59:20;34.85;;;21.60;;
79204;SDS011;68632;47.512;19.104;2024-03-02T03:00:22;35.33;;;21.23;;
79204;SDS011;68632;47.512;19.104;2024-03-02T03:01:25;35.40;;;21.08;;
79204;SDS011;68632;47.512;19.104;2024-03-02T03:02:27;33.15;;;20.80;;
79204;SDS011;68632;47.512;19.104;2024-03-02T03:03:30;34.60;;;23.17;;
79204;SDS011;68632;47.512;19.104;2024-03-02T03:04:32;33.55;;;23.20;;
79204;SDS011;68632;47.512;19.104;2024-03-02T03:05:34;39.65;;;22.25;;
79204;SDS011;68632;47.512;19.104;2024-03-02T03:06:36;33.25;;;22.05;;
79204;SDS011;68632;47.512;19.104;2024-03-02T03:07:39;35.58;;;23.70;;
79204;SDS011;68632;47.512;19.104;2024-03-02T03:08:42;36.63;;;21.40;;
79204;SDS011;68632;47.512;19.104;2024-03-02T03:09:44;37.17;;;22.08;;
79204;SDS011;68632;47.512;19.104;2024-03-02T03:10:46;35.38;;;22.40;;
79204;SDS011;68632;47.512;19.104;2024-03-02T03:11:48;35.80;;;21.55;;
79204;SDS011;68632;47.512;19.104;2024-03-02T03:12:51;43.75;;;22.95;;
79204;SDS011;68632;47.512;19.104;2024-03-02T03:13:53;41.00;;;22.40;;
79204;SDS011;68632;47.512;19.104;2024-03-02T03:14:56;39.55;;;23.27;;
79204;SDS011;68632;47.512;19.104;2024-03-02T03:15:59;38.58;;;22.48;;
79204;SDS011;68632;47.512;19.104;2024-03-02T03:17:01;33.42;;;20.13;;
79204;SDS011;68632;47.512;19.104;2024-03-02T03:18:03;38.63;;;22.65;;
79204;SDS011;68632;47.512;19.104;2024-03-02T03:19:06;38.95;;;20.38;;
79204;SDS011;68632;47.512;19.104;2024-03-02T03:20:08;39.92;;;22.52;;
79204;SDS011;68632;47.512;19.104;2024-03-02T03:21:17;37.15;;;22.52;;
79204;SDS011;68632;47.512;19.104;2024-03-02T03:22:20;34.63;;;20.90;;
79204;SDS011;68632;47.512;19.104;2024-03-02T03:23:22;33.70;;;21.60;;
79204;SDS011;68632;47.512;19.104;2024-03-02T03:24:24;34.92;;;21.77;;
79204;SDS011;68632;47.512;19.104;2024-03-02T03:25:26;35.65;;;21.30;;
79204;SDS011;68632;47.512;19.104;2024-03-02T03:26:29;38.10;;;22.23;;
79204;SDS011;68632;47.512;19.104;2024-03-02T03:27:31;37.67;;;21.20;;
79204;SDS011;68632;47.512;19.104;2024-03-02T03:28:34;34.30;;;20.08;;
79204;SDS011;68632;47.512;19.104;2024-03-02T03:29:36;40.63;;;21.73;;
79204;SDS011;68632;47.512;19.104;2024-03-02T03:30:38;36.65;;;20.88;;
79204;SDS011;68632;47.512;19.104;2024-03-02T03:31:41;34.63;;;21.20;;
79204;SDS011;68632;47.512;19.104;2024-03-02T03:32:43;35.95;;;21.77;;
79204;SDS011;68632;47.512;19.104;2024-03-02T03:33:45;34.83;;;20.40;;
79204;SDS011;68632;47.512;19.104;2024-03-02T03:34:48;36.97;;;21.45;;
79204;SDS011;68632;47.512;19.104;2024-03-02T03:35:50;32.70;;;22.58;;
79204;SDS011;68632;47.512;19.104;2024-03-02T03:36:53;36.83;;;21.13;;
79204;SDS011;68632;47.512;19.104;2024-03-02T03:37:55;31.90;;;21.10;;
79204;SDS011;68632;47.512;19.104;2024-03-02T03:38:57;36.47;;;20.83;;
79204;SDS011;68632;47.512;19.104;2024-03-02T03:39:59;35.67;;;21.00;;
79204;SDS011;68632;47.512;19.104;2024-03-02T03:41:03;33.47;;;21.33;;
79204;SDS011;68632;47.512;19.104;2024-03-02T03:42:05;32.65;;;20.60;;
79204;SDS011;68632;47.512;19.104;2024-03-02T03:43:07;33.22;;;21.40;;
79204;SDS011;68632;47.512;19.104;2024-03-02T03:44:10;39.42;;;22.67;;
79204;SDS011;68632;47.512;19.104;2024-03-02T03:45:12;32.67;;;20.40;;
79204;SDS011;68632;47.512;19.104;2024-03-02T03:46:14;34.85;;;20.85;;
79204;SDS011;68632;47.512;19.104;2024-03-02T03:47:17;37.28;;;21.33;;
79204;SDS011;68632;47.512;19.104;2024-03-02T03:48:19;34.83;;;21.40;;
79204;SDS011;68632;47.512;19.104;2024-03-02T03:49:21;35.45;;;21.17;;
79204;SDS011;68632;47.512;19.104;2024-03-02T03:50:23;39.55;;;22.80;;
79204;SDS011;68632;47.512;19.104;2024-03-02T03:51:26;37.92;;;21.45;;
79204;SDS011;68632;47.512;19.104;2024-03-02T03:52:28;36.22;;;21.88;;
79204;SDS011;68632;47.512;19.104;2024-03-02T03:53:30;39.17;;;21.10;;
79204;SDS011;68632;47.512;19.104;2024-03-02T03:54:32;37.97;;;21.92;;
79204;SDS011;68632;47.512;19.104;2024-03-02T03:55:35;36.20;;;21.42;;
79204;SDS011;68632;47.512;19.104;2024-03-02T03:56:37;34.42;;;20.88;;
79204;SDS011;68632;47.512;19.104;2024-03-02T03:57:40;32.92;;;21.15;;
79204;SDS011;68632;47.512;19.104;2024-03-02T03:58:42;36.15;;;21.20;;
79204;SDS011;68632;47.512;19.104;2024-03-02T03:59:44;33.38;;;21.50;;
79204;SDS011;68632;47.512;19.104;2024-03-02T04:00:48;40.10;;;23.08;;
79204;SDS011;68632;47.512;19.104;2024-03-02T04:01:50;31.55;;;19.25;;
79204;SDS011;68632;47.512;19.104;2024-03-02T04:02:53;38.35;;;21.55;;
79204;SDS011;68632;47.512;19.104;2024-03-02T04:03:55;39.17;;;21.92;;
79204;SDS011;68632;47.512;19.104;2024-03-02T04:04:57;38.45;;;22.10;;
79204;SDS011;68632;47.512;19.104;2024-03-02T04:05:59;40.30;;;22.17;;
79204;SDS011;68632;47.512;19.104;2024-03-02T04:07:02;36.22;;;21.10;;
79204;SDS011;68632;47.512;19.104;2024-03-02T04:08:04;35.85;;;21.98;;
79204;SDS011;68632;47.512;19.104;2024-03-02T04:09:06;42.92;;;23.05;;
79204;SDS011;68632;47.512;19.104;2024-03-02T04:10:09;36.78;;;21.48;;
79204;SDS011;68632;47.512;19.104;2024-03-02T04:11:12;38.92;;;24.08;;
79204;SDS011;68632;47.512;19.104;2024-03-02T04:12:14;38.25;;;22.15;;
79204;SDS011;68632;47.512;19.104;2024-03-02T04:13:16;36.25;;;21.38;;
79204;SDS011;68632;47.512;19.104;2024-03-02T04:14:19;40.60;;;22.58;;
79204;SDS011;68632;47.512;19.104;2024-03-02T04:15:21;36.80;;;21.38;;
79204;SDS011;68632;47.512;19.104;2024-03-02T04:16:25;39.72;;;22.45;;
79204;SDS011;68632;47.512;19.104;2024-03-02T04:17:27;40.10;;;21.55;;
79204;SDS011;68632;47.512;19.104;2024-03-02T04:18:29;38.10;;;21.73;;
79204;SDS011;68632;47.512;19.104;2024-03-02T04:19:31;37.92;;;22.23;;
79204;SDS011;68632;47.512;19.104;2024-03-02T04:20:34;34.80;;;19.98;;
79204;SDS011;68632;47.512;19.104;2024-03-02T04:21:36;39.25;;;21.65;;
79204;SDS011;68632;47.512;19.104;2024-03-02T04:22:39;35.97;;;20.30;;
79204;SDS011;68632;47.512;19.104;2024-03-02T04:23:41;35.40;;;20.20;;
79204;SDS011;68632;47.512;19.104;2024-03-02T04:24:43;41.58;;;24.67;;
79204;SDS011;68632;47.512;19.104;2024-03-02T04:25:46;37.92;;;21.58;;
79204;SDS011;68632;47.512;19.104;2024-03-02T04:26:48;41.67;;;24.02;;
79204;SDS011;68632;47.512;19.104;2024-03-02T04:27:50;39.33;;;22.48;;
79204;SDS011;68632;47.512;19.104;2024-03-02T04:28:52;37.25;;;23.73;;
79204;SDS011;68632;47.512;19.104;2024-03-02T04:29:56;40.85;;;21.92;;
79204;SDS011;68632;47.512;19.104;2024-03-02T04:30:58;42.13;;;23.02;;
79204;SDS011;68632;47.512;19.104;2024-03-02T04:32:00;35.33;;;22.58;;
79204;SDS011;68632;47.512;19.104;2024-03-02T04:33:02;39.80;;;23.67;;
79204;SDS011;68632;47.512;19.104;2024-03-02T04:34:05;40.58;;;23.08;;
79204;SDS011;68632;47.512;19.104;2024-03-02T04:35:08;37.72;;;22.45;;
79204;SDS011;68632;47.512;19.104;2024-03-02T04:36:10;39.08;;;23.02;;
79204;SDS011;68632;47.512;19.104;2024-03-02T04:37:12;37.67;;;23.23;;
79204;SDS011;68632;47.512;19.104;2024-03-02T04:38:16;45.28;;;22.80;;
79204;SDS011;68632;47.512;19.104;2024-03-02T04:39:18;42.10;;;23.08;;
79204;SDS011;68632;47.512;19.104;2024-03-02T04:40:21;40.75;;;23.70;;
79204;SDS011;68632;47.512;19.104;2024-03-02T04:41:23;42.25;;;22.92;;
79204;SDS011;68632;47.512;19.104;2024-03-02T04:42:25;38.88;;;23.08;;
79204;SDS011;68632;47.512;19.104;2024-03-02T04:43:27;43.33;;;25.30;;
79204;SDS011;68632;47.512;19.104;2024-03-02T04:44:30;41.55;;;23.83;;
79204;SDS011;68632;47.512;19.104;2024-03-02T04:45:32;40.67;;;23.77;;
79204;SDS011;68632;47.512;19.104;2024-03-02T04:46:34;43.17;;;23.77;;
79204;SDS011;68632;47.512;19.104;2024-03-02T04:47:36;42.78;;;24.45;;
79204;SDS011;68632;47.512;19.104;2024-03-02T04:48:39;45.00;;;25.10;;
79204;SDS011;68632;47.512;19.104;2024-03-02T04:49:41;43.78;;;23.95;;
79204;SDS011;68632;47.512;19.104;2024-03-02T04:50:43;44.05;;;25.25;;
79204;SDS011;68632;47.512;19.104;2024-03-02T04:51:45;41.72;;;24.52;;
79204;SDS011;68632;47.512;19.104;2024-03-02T04:52:48;45.20;;;23.65;;
79204;SDS011;68632;47.512;19.104;2024-03-02T04:53:50;48.05;;;25.55;;
79204;SDS011;68632;47.512;19.104;2024-03-02T04:54:52;43.17;;;25.25;;
79204;SDS011;68632;47.512;19.104;2024-03-02T04:56:13;47.65;;;25.10;;
79204;SDS011;68632;47.512;19.104;2024-03-02T04:57:24;43.90;;;24.33;;
79204;SDS011;68632;47.512;19.104;2024-03-02T04:58:26;45.38;;;24.45;;
79204;SDS011;68632;47.512;19.104;2024-03-02T04:59:29;43.72;;;24.55;;
79204;SDS011;68632;47.512;19.104;2024-03-02T05:00:31;43.75;;;25.25;;
79204;SDS011;68632;47.512;19.104;2024-03-02T05:01:33;47.35;;;25.63;;
79204;SDS011;68632;47.512;19.104;2024-03-02T05:02:35;48.00;;;24.90;;
79204;SDS011;68632;47.512;19.104;2024-03-02T05:03:38;44.83;;;26.33;;
79204;SDS011;68632;47.512;19.104;2024-03-02T05:04:40;44.92;;;25.92;;
79204;SDS011;68632;47.512;19.104;2024-03-02T05:05:43;46.60;;;25.52;;
79204;SDS011;68632;47.512;19.104;2024-03-02T05:06:46;46.90;;;24.00;;
79204;SDS011;68632;47.512;19.104;2024-03-02T05:07:55;41.33;;;24.88;;
79204;SDS011;68632;47.512;19.104;2024-03-02T05:08:57;47.65;;;25.02;;
79204;SDS011;68632;47.512;19.104;2024-03-02T05:09:59;48.13;;;25.92;;
79204;SDS011;68632;47.512;19.104;2024-03-02T05:11:01;47.92;;;25.40;;
79204;SDS011;68632;47.512;19.104;2024-03-02T05:12:24;46.35;;;24.92;;
79204;SDS011;68632;47.512;19.104;2024-03-02T05:13:44;48.13;;;24.83;;
79204;SDS011;68632;47.512;19.104;2024-03-02T05:14:46;44.65;;;24.92;;
79204;SDS011;68632;47.512;19.104;2024-03-02T05:15:49;47.67;;;29.05;;
79204;SDS011;68632;47.512;19.104;2024-03-02T05:16:51;44.88;;;25.88;;
79204;SDS011;68632;47.512;19.104;2024-03-02T05:17:53;48.72;;;26.65;;
79204;SDS011;68632;47.512;19.104;2024-03-02T05:18:56;46.97;;;28.15;;
79204;SDS011;68632;47.512;19.104;2024-03-02T05:19:58;43.80;;;24.90;;
79204;SDS011;68632;47.512;19.104;2024-03-02T05:21:01;44.28;;;25.95;;
79204;SDS011;68632;47.512;19.104;2024-03-02T05:22:03;43.90;;;25.45;;
79204;SDS011;68632;47.512;19.104;2024-03-02T05:23:05;48.88;;;27.13;;
79204;SDS011;68632;47.512;19.104;2024-03-02T05:24:08;47.80;;;25.33;;
79204;SDS011;68632;47.512;19.104;2024-03-02T05:25:10;43.55;;;25.85;;
79204;SDS011;68632;47.512;19.104;2024-03-02T05:26:12;49.42;;;25.60;;
79204;SDS011;68632;47.512;19.104;2024-03-02T05:27:15;44.65;;;25.35;;
79204;SDS011;68632;47.512;19.104;2024-03-02T05:28:17;46.38;;;25.42;;
79204;SDS011;68632;47.512;19.104;2024-03-02T05:29:19;48.33;;;26.90;;
79204;SDS011;68632;47.512;19.104;2024-03-02T05:30:22;50.15;;;27.60;;
79204;SDS011;68632;47.512;19.104;2024-03-02T05:31:25;46.72;;;26.17;;
79204;SDS011;68632;47.512;19.104;2024-03-02T05:32:27;48.15;;;26.15;;
79204;SDS011;68632;47.512;19.104;2024-03-02T05:33:29;51.75;;;26.67;;
79204;SDS011;68632;47.512;19.104;2024-03-02T05:34:33;45.10;;;25.20;;
79204;SDS011;68632;47.512;19.104;2024-03-02T05:35:37;45.05;;;25.17;;
79204;SDS011;68632;47.512;19.104;2024-03-02T05:36:39;42.17;;;24.70;;
79204;SDS011;68632;47.512;19.104;2024-03-02T05:37:41;47.53;;;25.50;;
79204;SDS011;68632;47.512;19.104;2024-03-02T05:38:44;47.85;;;25.27;;
79204;SDS011;68632;47.512;19.104;2024-03-02T05:39:46;49.25;;;27.00;;
79204;SDS011;68632;47.512;19.104;2024-03-02T05:40:48;45.55;;;26.35;;
79204;SDS011;68632;47.512;19.104;2024-03-02T05:41:50;44.88;;;25.90;;
79204;SDS011;68632;47.512;19.104;2024-03-02T05:42:53;50.60;;;26.40;;
79204;SDS011;68632;47.512;19.104;2024-03-02T05:43:55;47.70;;;27.83;;
79204;SDS011;68632;47.512;19.104;2024-03-02T05:44:58;46.25;;;25.65;;
79204;SDS011;68632;47.512;19.104;2024-03-02T05:46:00;46.88;;;25.73;;
79204;SDS011;68632;47.512;19.104;2024-03-02T05:47:02;45.65;;;25.45;;
79204;SDS011;68632;47.512;19.104;2024-03-02T05:48:08;46.70;;;25.45;;
79204;SDS011;68632;47.512;19.104;2024-03-02T05:49:11;46.38;;;26.73;;
79204;SDS011;68632;47.512;19.104;2024-03-02T05:50:13;43.25;;;25.00;;
79204;SDS011;68632;47.512;19.104;2024-03-02T05:51:16;44.80;;;26.05;;
79204;SDS011;68632;47.512;19.104;2024-03-02T05:52:18;47.33;;;26.92;;
79204;SDS011;68632;47.512;19.104;2024-03-02T05:53:20;49.05;;;26.45;;
79204;SDS011;68632;47.512;19.104;2024-03-02T05:54:23;43.88;;;26.33;;
79204;SDS011;68632;47.512;19.104;2024-03-02T05:55:25;46.15;;;26.02;;
79204;SDS011;68632;47.512;19.104;2024-03-02T05:56:27;44.25;;;25.88;;
79204;SDS011;68632;47.512;19.104;2024-03-02T05:57:29;47.40;;;26.27;;
79204;SDS011;68632;47.512;19.104;2024-03-02T05:58:51;46.70;;;25.15;;
79204;SDS011;68632;47.512;19.104;2024-03-02T06:00:12;43.08;;;25.10;;
79204;SDS011;68632;47.512;19.104;2024-03-02T06:01:14;40.45;;;24.85;;
79204;SDS011;68632;47.512;19.104;2024-03-02T06:02:17;45.58;;;26.20;;
79204;SDS011;68632;47.512;19.104;2024-03-02T06:03:19;49.75;;;27.08;;
79204;SDS011;68632;47.512;19.104;2024-03-02T06:04:21;46.78;;;25.60;;
79204;SDS011;68632;47.512;19.104;2024-03-02T06:05:24;48.22;;;26.50;;
79204;SDS011;68632;47.512;19.104;2024-03-02T06:06:26;52.83;;;28.15;;
79204;SDS011;68632;47.512;19.104;2024-03-02T06:07:29;50.80;;;27.42;;
79204;SDS011;68632;47.512;19.104;2024-03-02T06:08:31;50.13;;;28.52;;